Home > Products > Valid Products > TAF

000
FTUS42 TJSJ 241600 AAA
TAFJPS
TAF AMD
TJPS 241634Z 2417/2512 14010KT P6SM VCSH FEW022 SCT050
     FM242300 05004KT P6SM FEW030 SCT070
     FM250600 00000KT P6SM VCSH FEW022 SCT040=



000
FTUS42 TJSJ 241338 AAA
TAFIST
TAF AMD
TIST 241338Z 2414/2512 15006KT P6SM SCT030
     FM241500 14011KT P6SM VCSH SCT030 SCT050
     FM242300 11005KT P6SM SCT025=



000
FTUS42 TJSJ 241335 AAA
TAFJSJ
TAF AMD
TJSJ 241335Z 2414/2512 VRB02KT P6SM FEW028 SCT080
     FM241500 08010KT P6SM VCSH SCT030 SCT050
     FM242230 11005KT P6SM SCT025=



000
FTUS42 TJSJ 241100
TAFKPK
TAF
TKPK 241130Z 2412/2512 VRB02KT P6SM SCT018
     FM241300 09012KT P6SM SCT022
     FM242300 08006KT P6SM FEW020=



000
FTUS42 TJSJ 241100
TAFJBQ
TAF
TJBQ 241130Z 2412/2512 11005KT P6SM SCT050
     FM241330 VRB06KT P6SM FEW025 SCT050
     FM241630 07012KT P6SM VCTS SCT025CB BKN050
     FM242230 11005KT P6SM SCT025=



000
FTUS42 TJSJ 241100
TAFISX
TAF
TISX 241130Z 2412/2512 10005KT P6SM FEW025
     FM241300 11013KT P6SM VCSH SCT030 SCT050
     FM242300 10005KT P6SM SCT025
      AMD NOT SKED=



000
FTUS42 TJSJ 241100
TAFJMZ
TAF
TJMZ 241130Z 2412/2512 08005KT P6SM FEW030
     FM241630 29010KT P6SM VCTS SCT025CB BKN040
     FM242230 08005KT P6SM SCT025
      AMD NOT SKED TIL 241600=



000
FTUS42 TJSJ 241100
TAFJPS
TAF
TJPS 241130Z 2412/2512 00000KT P6SM FEW030
     FM241330 14010KT P6SM FEW030 SCT060
     FM242230 05005KT P6SM FEW030=



000
FTUS42 TJSJ 241100
TAFNCM
TAF
TNCM 241130Z 2412/2512 10005KT P6SM SCT018
     FM241300 12012KT P6SM SCT022
     FM242300 08006KT P6SM FEW020=



000
FTUS42 TJSJ 241100
TAFIST
TAF
TIST 241130Z 2412/2512 12005KT P6SM FEW025
     FM241300 14012KT P6SM VCSH SCT030 SCT050
     FM242300 11005KT P6SM SCT025=



000
FTUS42 TJSJ 241100
TAFJSJ
TAF
TJSJ 241130Z 2412/2512 VRB05KT P6SM FEW028 SCT080
     FM241330 08012KT P6SM VCSH SCT030 SCT050
     FM242230 11005KT P6SM SCT025=



000
FTUS42 TJSJ 240800 AAA
TAFISX
TAF AMD
TISX 240854Z 2409/2506 10005KT P6SM FEW025
     FM241300 11013KT P6SM VCSH SCT030 SCT050
     FM242300 10005KT P6SM SCT025
      AMD NOT SKED=



000
FTUS42 TJSJ 240500
TAFJMZ
TAF
TJMZ 240531Z 2406/2506 08005KT P6SM FEW030
     FM241630 29010KT P6SM VCTS SCT025CB BKN040
     FM242230 08005KT P6SM SCT025
      AMD NOT SKED TIL 241600=



000
FTUS42 TJSJ 240500
TAFJPS
TAF
TJPS 240531Z 2406/2506 00000KT P6SM FEW030
     FM241330 14010KT P6SM FEW030 SCT060
     FM242230 05005KT P6SM FEW030=



000
FTUS42 TJSJ 240500
TAFJBQ
TAF
TJBQ 240531Z 2406/2506 11005KT P6SM SCT050
     FM241330 VRB06KT P6SM FEW025 SCT050
     FM241630 07012KT P6SM VCTS SCT025CB BKN050
     FM242230 11005KT P6SM SCT025
      AMD NOT SKED TIL 241100=



000
FTUS42 TJSJ 240500
TAFNCM
TAF
TNCM 240531Z 2406/2506 12005KT P6SM SCT018
     FM241300 12012KT P6SM SCT022=



000
FTUS42 TJSJ 240500
TAFIST
TAF
TIST 240531Z 2406/2506 12005KT P6SM FEW025
     FM241300 14012KT P6SM VCSH SCT030 SCT050
     FM242300 11005KT P6SM SCT025=



000
FTUS42 TJSJ 240500
TAFKPK
TAF
TKPK 240531Z 2406/2506 VRB05KT P6SM SCT020
     FM241300 09012KT P6SM SCT022
      AMD NOT SKED TIL 241100=



000
FTUS42 TJSJ 240500
TAFISX
TAF
TISX 240531Z 2406/2506 10005KT P6SM FEW025
     FM241300 11013KT P6SM VCSH SCT030 SCT050
     FM242300 10005KT P6SM SCT025=



000
FTUS42 TJSJ 240500
TAFJSJ
TAF
TJSJ 240531Z 2406/2506 11003KT P6SM FEW060
     FM241330 08012KT P6SM VCSH SCT030 SCT050
     FM242230 11005KT P6SM SCT025=



000
FTUS42 TJSJ 240200 AAA
TAFKPK
TAF AMD
TKPK 240215Z 2402/2424 VRB05KT P6SM SCT020
     FM241300 09012KT P6SM SCT022
      AMD NOT SKED 2402/2411=



000
FTUS42 TJSJ 240200 AAA
TAFKPK
TAF AMD
TKPK 240215Z 2402/2424 VRB05KT P6SM SCT020
     FM241300 09012KT P6SM SCT022
      AMD NOT SKED 2402/2411=



000
FTUS42 TJSJ 232300 RRA
TAFJBQ
TAF
TJBQ 232346Z 2400/2424 11005KT P6SM SCT050
     FM241330 VRB06KT P6SM FEW025 SCT050
     FM241630 07012KT P6SM VCTS SCT025CB BKN050
     FM242230 11005KT P6SM SCT025
      AMD NOT SKED 2402/2411=



000
FTUS42 TJSJ 232300 RRA
TAFJPS
TAF
TJPS 232346Z 2400/2424 05005KT P6SM FEW030
     FM241330 14010KT P6SM FEW030 SCT060
     FM242230 05005KT P6SM FEW030
      AMD NOT SKED TIL 240300=



000
FTUS42 TJSJ 232300 RRA
TAFISX
TAF
TISX 232346Z 2400/2424 10005KT P6SM FEW025
     FM241300 11013KT P6SM VCSH SCT030 SCT050
     FM242300 10005KT P6SM SCT025=



000
FTUS42 TJSJ 232300 RRA
TAFNCM
TAF
TNCM 232346Z 2400/2424 10005KT P6SM FEW020
     FM241300 12012KT P6SM SCT022=



000
FTUS42 TJSJ 232300 RRA
TAFJSJ
TAF
TJSJ 232346Z 2400/2424 11005KT P6SM FEW025 FEW050
     FM241330 08012KT P6SM VCSH SCT030 SCT050
     FM242230 11005KT P6SM SCT025=



000
FTUS42 TJSJ 232300 RRA
TAFJMZ
TAF
TJMZ 232346Z 2400/2424 08005KT P6SM FEW030
     FM241630 29010KT P6SM VCTS SCT025CB BKN040
     FM242230 08005KT P6SM SCT025
      AMD NOT SKED TIL 241600=



000
FTUS42 TJSJ 232300 RRA
TAFKPK
TAF
TKPK 232346Z 2400/2424 VRB05KT P6SM FEW020
     FM241300 09012KT P6SM SCT022
      AMD NOT SKED 2402/2411=



000
FTUS42 TJSJ 232300 RRA
TAFIST
TAF
TIST 232346Z 2400/2424 12005KT P6SM FEW025
     FM241300 14012KT P6SM VCSH SCT030 SCT050
     FM242300 11005KT P6SM SCT025=



000
FTUS42 TJSJ 232100 AAB
TAFJBQ
TAF AMD
TJBQ 232139Z 2322/2418 03006KT P6SM SHRA SCT020 BKN050
     FM232300 10005KT P6SM FEW030 SCT070
     FM240400 00000KT P6SM SKC
     FM241400 08011KT P6SM FEW025 SCT050=



000
FTUS42 TJSJ 232100 AAB
TAFJBQ
TAF AMD
TJBQ 232139Z 2322/2418 03006KT P6SM SHRA SCT020 BKN050
     FM232300 10005KT P6SM FEW030 SCT070
     FM240400 00000KT P6SM SKC
     FM241400 08011KT P6SM FEW025 SCT050=



000
FTUS42 TJSJ 232000 AAA
TAFJBQ
TAF AMD
TJBQ 232029Z 2320/2418 03006KT P6SM VCSH BKN040
     FM232300 10005KT P6SM FEW030 SCT070
     FM240400 00000KT P6SM SKC
     FM241400 08011KT P6SM FEW025 SCT050=



000
FTUS42 TJSJ 231700
TAFJSJ
TAF
TJSJ 231739Z 2318/2418 06012G18KT P6SM VCSH SCT025 SCT040
     FM232300 10007KT P6SM FEW030 SCT060
     FM240630 00000KT P6SM VCSH SCT025 SCT040
     FM241330 08011KT P6SM SCT030 SCT060=



000
FTUS42 TJSJ 231700
TAFNCM
TAF
TNCM 231739Z 2318/2418 13012KT P6SM VCSH SCT020 SCT040
     FM232300 09008KT P6SM SCT019
     FM240430 07004KT P6SM VCSH SCT019 BKN035
     FM241400 12011KT P6SM SCT022 SCT040=



000
FTUS42 TJSJ 231700
TAFKPK
TAF
TKPK 231739Z 2318/2418 09011KT P6SM VCSH FEW018 SCT035
     FM232300 08005KT P6SM SCT018
     FM240400 07007KT P6SM VCSH SCT018 BKN035
     FM241400 08011KT P6SM SCT022 SCT040=



000
FTUS42 TJSJ 231700
TAFJPS
TAF
TJPS 231739Z 2318/2418 14011KT P6SM FEW030 SCT060
     FM232330 05003KT P6SM FEW030
     FM240300 00000KT P6SM FEW060
     FM241400 15012KT P6SM FEW030 SCT050
      AMD NOT SKED TIL 240300=



000
FTUS42 TJSJ 231700
TAFJMZ
TAF
TJMZ 231739Z 2318/2418 34007KT P6SM VCTS FEW022CB BKN040
     FM232300 07004KT P6SM SCT030 SCT070
     FM240300 00000KT P6SM SKC
     FM241450 32009KT P6SM SCT025 SCT040
      AMD NOT SKED 2323/2411=



000
FTUS42 TJSJ 231700
TAFJBQ
TAF
TJBQ 231739Z 2318/2418 34009KT P6SM VCTS FEW022CB BKN040
     FM232300 10005KT P6SM FEW030 SCT070
     FM240400 00000KT P6SM SKC
     FM241400 08011KT P6SM FEW025 SCT050=



000
FTUS42 TJSJ 231700
TAFKPK
TAF
TKPK 231739Z 2318/2418 09011KT P6SM VCSH FEW018 SCT035
     FM232300 08005KT P6SM SCT018
     FM240400 07007KT P6SM VCSH SCT018 BKN035
     FM241400 08011KT P6SM SCT022 SCT040=



000
FTUS42 TJSJ 231700
TAFISX
TAF
TISX 231739Z 2318/2418 11012KT P6SM SCT025 SCT040
     FM232300 09009KT P6SM FEW030
     FM240600 07005KT P6SM VCSH SCT022 SCT040
     FM241330 11012KT P6SM SCT030 SCT050=



000
FTUS42 TJSJ 231700
TAFIST
TAF
TIST 231739Z 2318/2418 14012KT P6SM FEW025 SCT040
     FM232300 10007KT P6SM FEW030 PROB30 2406/2410 -SHRA BKN025
     FM241330 14012KT P6SM SCT030 SCT050=



000
FTUS42 TJSJ 231700
TAFJMZ
TAF
TJMZ 231739Z 2318/2418 34007KT P6SM VCTS FEW022CB BKN040
     FM232300 07004KT P6SM SCT030 SCT070
     FM240300 00000KT P6SM SKC
     FM241450 32009KT P6SM SCT025 SCT040
      AMD NOT SKED 2323/2411=



000
FTUS42 TJSJ 231700
TAFJPS
TAF
TJPS 231739Z 2318/2418 14011KT P6SM FEW030 SCT060
     FM232330 05003KT P6SM FEW030
     FM240300 00000KT P6SM FEW060
     FM241400 15012KT P6SM FEW030 SCT050
      AMD NOT SKED TIL 240300=



000
FTUS42 TJSJ 231700
TAFJSJ
TAF
TJSJ 231739Z 2318/2418 06012G18KT P6SM VCSH SCT025 SCT040
     FM232300 10007KT P6SM FEW030 SCT060
     FM240630 00000KT P6SM VCSH SCT025 SCT040
     FM241330 08011KT P6SM SCT030 SCT060=



000
FTUS42 TJSJ 231700
TAFNCM
TAF
TNCM 231739Z 2318/2418 13012KT P6SM VCSH SCT020 SCT040
     FM232300 09008KT P6SM SCT019
     FM240430 07004KT P6SM VCSH SCT019 BKN035
     FM241400 12011KT P6SM SCT022 SCT040=



000
FTUS42 TJSJ 231700
TAFISX
TAF
TISX 231739Z 2318/2418 11012KT P6SM SCT025 SCT040
     FM232300 09009KT P6SM FEW030
     FM240600 07005KT P6SM VCSH SCT022 SCT040
     FM241330 11012KT P6SM SCT030 SCT050=



000
FTUS42 TJSJ 231700
TAFIST
TAF
TIST 231739Z 2318/2418 14012KT P6SM FEW025 SCT040
     FM232300 10007KT P6SM FEW030 PROB30 2406/2410 -SHRA BKN025
     FM241330 14012KT P6SM SCT030 SCT050=



000
FTUS42 TJSJ 231700
TAFJBQ
TAF
TJBQ 231739Z 2318/2418 34009KT P6SM VCTS FEW022CB BKN040
     FM232300 10005KT P6SM FEW030 SCT070
     FM240400 00000KT P6SM SKC
     FM241400 08011KT P6SM FEW025 SCT050=



000
FTUS42 TJSJ 231400 AAA
TAFISX
TAF AMD
TISX 231405Z 2314/2412 09012KT P6SM SCT030
     FM231750 11012KT P6SM FEW025 SCT040
     FM232300 07006KT P6SM SCT030=



000
FTUS42 TJSJ 231200 CCA
TAFISX
TAF COR
TISX 231239Z 2312/2412 09008KT P6SM FEW025
     FM231400 11012KT P6SM FEW030 SCT050
     FM232230 07006KT P6SM SCT030
      AMD NOT SKED=



000
FTUS42 TJSJ 231100
TAFIST
TAF
TIST 231138Z 2312/2412 09004KT P6SM FEW025
     FM231400 12012KT P6SM FEW030 SCT050
     FM232230 09007KT P6SM SCT030=



000
FTUS42 TJSJ 231100
TAFISX
TAF
TISX 231138Z 2312/2412 09008KT P6SM FEW025
     FM231400 11012KT P6SM FEW030 SCT050
     FM232230 07006KT P6SM SCT030=



000
FTUS42 TJSJ 231100
TAFJPS
TAF
TJPS 231138Z 2312/2412 08004KT P6SM FEW030
     FM231500 13012KT P6SM SCT030 SCT060
     FM232330 05003KT P6SM FEW030 SCT060
      AMD NOT SKED TIL 240300=



000
FTUS42 TJSJ 231100
TAFJMZ
TAF
TJMZ 231138Z 2312/2412 09004KT P6SM FEW030
     FM231430 26008KT P6SM SCT025
     FM231730 27010KT P6SM VCTS SCT025CB BKN040
     FM232300 07004KT P6SM SCT025 SCT070=



000
FTUS42 TJSJ 231100
TAFJBQ
TAF
TJBQ 231138Z 2312/2412 10005KT P6SM FEW030
     FM231400 08011KT P6SM SCT030
     FM231800 07012KT P6SM VCTS FEW025CB BKN040
     FM232300 10005KT P6SM FEW030 SCT080=



000
FTUS42 TJSJ 231100
TAFJSJ
TAF
TJSJ 231138Z 2312/2412 07004KT P6SM VCSH FEW025 SCT050 BKN080
     FM231400 08011KT P6SM FEW030 SCT080
     FM231750 07014KT P6SM VCSH SCT024 SCT040
     FM232330 VRB05KT P6SM FEW030 SCT060=



000
FTUS42 TJSJ 231100
TAFKPK
TAF
TKPK 231138Z 2312/2412 08011KT P6SM VCSH SCT018
     FM231430 07011KT P6SM FEW022
     FM232300 09005KT P6SM SCT020=



000
FTUS42 TJSJ 231100
TAFNCM
TAF
TNCM 231138Z 2312/2412 10006KT P6SM VCSH SCT018
     FM231430 12012KT P6SM FEW022
     FM232300 08006KT P6SM SCT020=



000
FTUS42 TJSJ 230500
TAFISX
TAF
TISX 230527Z 2306/2406 11008KT P6SM FEW020 SCT030
     FM231400 10012KT P6SM SCT025
     FM232300 VRB05KT P6SM FEW025=



000
FTUS42 TJSJ 230500
TAFNCM
TAF
TNCM 230527Z 2306/2406 07007KT P6SM FEW020
     FM231500 12010KT P6SM SCT022
     FM232300 08006KT P6SM FEW020=



000
FTUS42 TJSJ 230500
TAFJBQ
TAF
TJBQ 230527Z 2306/2406 07005KT P6SM SCT030
     FM231400 07013KT P6SM SCT025
     FM232130 10005KT P6SM FEW025
      AMD NOT SKED TIL 231100=



000
FTUS42 TJSJ 230500
TAFJSJ
TAF
TJSJ 230527Z 2306/2406 00000KT P6SM FEW060
     FM231330 08012KT P6SM FEW030
     FM232330 VRB05KT P6SM FEW030=



000
FTUS42 TJSJ 230500
TAFKPK
TAF
TKPK 230527Z 2306/2406 06008KT P6SM SCT017
     FM231330 08010KT P6SM FEW022
     FM232300 06005KT P6SM FEW022
      AMD NOT SKED TIL 231100=



000
FTUS42 TJSJ 230500
TAFJMZ
TAF
TJMZ 230527Z 2306/2406 VRB05KT P6SM FEW030
     FM231430 27010KT P6SM SCT025
     FM231730 27010KT P6SM VCTS SCT025CB BKN040
     FM232200 07005KT P6SM SCT025 SCT040
      AMD NOT SKED TIL 231200=



000
FTUS42 TJSJ 230500
TAFJPS
TAF
TJPS 230527Z 2306/2406 00000KT P6SM FEW030
     FM231430 13012KT P6SM FEW030 SCT060
     FM232330 05003KT P6SM FEW030 SCT060=



000
FTUS42 TJSJ 230500
TAFIST
TAF
TIST 230527Z 2306/2406 11006KT P6SM SKC
     FM231400 12012KT P6SM SCT025
     FM232100 10007KT P6SM FEW025=



000
FTUS42 TJSJ 222300
TAFNCM
TAF
TNCM 222325Z 2300/2324 07009KT P6SM SCT019
     FM231500 12010KT P6SM SCT022
     FM232300 08006KT P6SM FEW020=



000
FTUS42 TJSJ 222300
TAFIST
TAF
TIST 222325Z 2300/2324 15008KT P6SM FEW030
     FM231400 12012KT P6SM SCT025
     FM232100 10007KT P6SM FEW025=



000
FTUS42 TJSJ 222300
TAFKPK
TAF
TKPK 222325Z 2300/2324 06008KT P6SM SCT017
     FM231330 08010KT P6SM FEW022
     FM232300 06005KT P6SM FEW022
      AMD NOT SKED 2302/2311=



000
FTUS42 TJSJ 222300
TAFJSJ
TAF
TJSJ 222325Z 2300/2324 10007KT P6SM FEW030
     FM231330 08012KT P6SM FEW030
     FM232330 VRB05KT P6SM FEW030=



000
FTUS42 TJSJ 222300
TAFJPS
TAF
TJPS 222325Z 2300/2324 VRB04KT P6SM FEW030
     FM231430 13012KT P6SM FEW030 SCT060
     FM232330 05003KT P6SM FEW030 SCT060
      AMD NOT SKED TIL 230300=



000
FTUS42 TJSJ 222300
TAFJBQ
TAF
TJBQ 222325Z 2300/2324 07005KT P6SM SCT030 SCT050
     FM231400 07013KT P6SM SCT025
     FM232130 10005KT P6SM FEW025
      AMD NOT SKED 2302/2311=



000
FTUS42 TJSJ 222300
TAFJMZ
TAF
TJMZ 222325Z 2300/2324 27005KT P6SM SCT030 SCT060
     FM231430 27010KT P6SM SCT025
     FM231730 27010KT P6SM VCTS SCT025CB BKN040
     FM232200 07005KT P6SM SCT025 SCT040
      AMD NOT SKED TIL 231200=



000
FTUS42 TJSJ 222300
TAFISX
TAF
TISX 222325Z 2300/2324 11008KT P6SM FEW020 SCT030
     FM231400 10012KT P6SM SCT025
     FM232300 VRB05KT P6SM FEW025=



000
FTUS42 TJSJ 221900 AAA
TAFJBQ
TAF AMD
TJBQ 221909Z 2219/2318 04013KT P6SM VCTS SCT025CB
     FM222130 10005KT P6SM FEW025
     FM231400 07013KT P6SM SCT025
      AMD NOT SKED 2302/2311=



000
FTUS42 TJSJ 221700
TAFJSJ
TAF
TJSJ 221734Z 2218/2318 06012KT P6SM SCT030
     FM222330 VRB05KT P6SM FEW030
     FM231330 08012KT P6SM FEW030=



000
FTUS42 TJSJ 221700
TAFISX
TAF
TISX 221734Z 2218/2318 11010KT P6SM SCT025
     FM222300 VRB05KT P6SM FEW025
     FM231400 10012KT P6SM SCT025=



000
FTUS42 TJSJ 221700
TAFIST
TAF
TIST 221734Z 2218/2318 15012KT P6SM SCT025
     FM222100 10007KT P6SM FEW025
     FM231400 12012KT P6SM SCT025=



000
FTUS42 TJSJ 221700
TAFNCM
TAF
TNCM 221734Z 2218/2318 10010KT P6SM SCT022
     FM222300 08006KT P6SM FEW020
     FM231500 12010KT P6SM SCT022=



000
FTUS42 TJSJ 221700
TAFJMZ
TAF
TJMZ 221734Z 2218/2318 27010KT P6SM VCTS SCT025CB BKN040
     FM222200 07005KT P6SM SCT025 SCT040
     FM231430 27010KT P6SM SCT025
     FM231730 27010KT P6SM VCTS SCT025CB BKN040
      AMD NOT SKED 2223/2312=



000
FTUS42 TJSJ 221700
TAFJBQ
TAF
TJBQ 221734Z 2218/2318 08013KT P6SM VCTS SCT025CB
     FM222250 10005KT P6SM FEW025
     FM231400 07013KT P6SM SCT025
      AMD NOT SKED 2302/2311=



000
FTUS42 TJSJ 221700
TAFKPK
TAF
TKPK 221734Z 2218/2318 06011KT P6SM SCT020
     FM231330 08010KT P6SM FEW022
      AMD NOT SKED 2302/2311=



000
FTUS42 TJSJ 221700
TAFJPS
TAF
TJPS 221734Z 2218/2318 13012KT P6SM FEW030 SCT060
     FM222330 05003KT P6SM FEW030 SCT060
     FM231430 13012KT P6SM FEW030 SCT060
      AMD NOT SKED TIL 230300=



000
FTUS42 TJSJ 221700
TAFJBQ
TAF
TJBQ 221734Z 2218/2318 08013KT P6SM VCTS SCT025CB
     FM222250 10005KT P6SM FEW025
     FM231400 07013KT P6SM SCT025
      AMD NOT SKED 2302/2311=



000
FTUS42 TJSJ 221700
TAFISX
TAF
TISX 221734Z 2218/2318 11010KT P6SM SCT025
     FM222300 VRB05KT P6SM FEW025
     FM231400 10012KT P6SM SCT025=



000
FTUS42 TJSJ 221700
TAFJPS
TAF
TJPS 221734Z 2218/2318 13012KT P6SM FEW030 SCT060
     FM222330 05003KT P6SM FEW030 SCT060
     FM231430 13012KT P6SM FEW030 SCT060
      AMD NOT SKED TIL 230300=



000
FTUS42 TJSJ 221700
TAFJMZ
TAF
TJMZ 221734Z 2218/2318 27010KT P6SM VCTS SCT025CB BKN040
     FM222200 07005KT P6SM SCT025 SCT040
     FM231430 27010KT P6SM SCT025
     FM231730 27010KT P6SM VCTS SCT025CB BKN040
      AMD NOT SKED 2223/2312=



000
FTUS42 TJSJ 221700
TAFIST
TAF
TIST 221734Z 2218/2318 15012KT P6SM SCT025
     FM222100 10007KT P6SM FEW025
     FM231400 12012KT P6SM SCT025=



000
FTUS42 TJSJ 221700
TAFKPK
TAF
TKPK 221734Z 2218/2318 06011KT P6SM SCT020
     FM231330 08010KT P6SM FEW022
      AMD NOT SKED 2302/2311=



000
FTUS42 TJSJ 221700
TAFJSJ
TAF
TJSJ 221734Z 2218/2318 06012KT P6SM SCT030
     FM222330 VRB05KT P6SM FEW030
     FM231330 08012KT P6SM FEW030=



000
FTUS42 TJSJ 221700
TAFNCM
TAF
TNCM 221734Z 2218/2318 10010KT P6SM SCT022
     FM222300 08006KT P6SM FEW020
     FM231500 12010KT P6SM SCT022=



000
FTUS42 TJSJ 221200 AAA
TAFISX
TAF AMD
TISX 221215Z 2212/2312 08007KT P6SM SKC
     FM221330 11013KT P6SM SCT025
     FM222300 06006KT P6SM FEW025=



000
FTUS42 TJSJ 221200 AAA
TAFKPK
TAF AMD
TKPK 221214Z 2212/2312 08011KT P6SM SCT020
     FM222300 06005KT P6SM FEW022
      AMD NOT SKED 2302/2311=



000
FTUS42 TJSJ 221100
TAFNCM
TAF
TNCM 221128Z 2212/2312 07005KT P6SM FEW020
     FM221500 10010KT P6SM SCT022
     FM222300 08006KT P6SM FEW020=



000
FTUS42 TJSJ 221100
TAFJBQ
TAF
TJBQ 221128Z 2212/2312 VRB04KT P6SM VCSH BKN080
     FM221400 08013KT P6SM SCT025
     FM222250 09008KT P6SM SCT025
      AMD NOT SKED 2302/2311=



000
FTUS42 TJSJ 221100
TAFIST
TAF
TIST 221128Z 2212/2312 11005KT P6SM VCSH SCT025
     FM221300 13012KT P6SM SCT025
     FM222100 09007KT P6SM FEW025=



000
FTUS42 TJSJ 221100
TAFJMZ
TAF
TJMZ 221128Z 2212/2312 VRB05KT P6SM SCT025 SCT060
     FM221530 27010KT P6SM SCT025 BKN040
     FM222200 06005KT P6SM SCT025 SCT040
      AMD NOT SKED 2223/2312=



000
FTUS42 TJSJ 221100
TAFJPS
TAF
TJPS 221128Z 2212/2312 VRB04KT P6SM FEW025 SCT070
     FM221500 13012KT P6SM FEW030 SCT060
     FM222330 05003KT P6SM FEW030 SCT060
      AMD NOT SKED TIL 230300=



000
FTUS42 TJSJ 221100
TAFKPK
TAF
TKPK 221128Z 2212/2312 05011KT P6SM SCT014
     FM221500 08011KT P6SM SCT020
     FM222300 04005KT P6SM FEW022
      AMD NOT SKED 2302/2311=



000
FTUS42 TJSJ 221100
TAFJSJ
TAF
TJSJ 221128Z 2212/2312 VRB04KT P6SM FEW030 SCT080
     FM221400 08012KT P6SM SCT025
     FM222200 10006KT P6SM FEW030 SCT070=



000
FTUS42 TJSJ 221100
TAFISX
TAF
TISX 221128Z 2212/2312 36004KT P6SM SKC
     FM221300 11013KT P6SM SCT025
     FM222300 06006KT P6SM FEW025=



000
FTUS42 TJSJ 220500
TAFJBQ
TAF
TJBQ 220521Z 2206/2306 VRB04KT P6SM VCSH BKN080
     FM221400 08013KT P6SM SCT025
     FM222250 09008KT P6SM SCT025
      AMD NOT SKED TIL 221100=



000
FTUS42 TJSJ 220500
TAFJSJ
TAF
TJSJ 220521Z 2206/2306 00000KT P6SM FEW030 SCT060
     FM221300 08012KT P6SM SCT025
     FM222200 10006KT P6SM FEW030 SCT070=



000
FTUS42 TJSJ 220500
TAFJPS
TAF
TJPS 220521Z 2206/2306 VRB04KT P6SM FEW025 SCT070
     FM221500 13012KT P6SM FEW030 SCT060
     FM222330 05003KT P6SM FEW030 SCT060=



000
FTUS42 TJSJ 220500
TAFIST
TAF
TIST 220521Z 2206/2306 11005KT P6SM VCSH SCT025
     FM221300 13012KT P6SM SCT025
     FM222100 09007KT P6SM FEW025=



000
FTUS42 TJSJ 220500
TAFNCM
TAF
TNCM 220521Z 2206/2306 10003KT P6SM FEW020
     FM221500 10010KT P6SM SCT022
     FM222300 08006KT P6SM FEW020=



000
FTUS42 TJSJ 220500
TAFISX
TAF
TISX 220521Z 2206/2306 03005KT P6SM SKC
     FM221300 11013KT P6SM SCT025
     FM222300 06006KT P6SM FEW025=



000
FTUS42 TJSJ 220500
TAFKPK
TAF
TKPK 220521Z 2206/2306 05005KT P6SM FEW019
     FM221500 08011KT P6SM SCT020
     FM222300 04005KT P6SM FEW022
      AMD NOT SKED TIL 221100=



000
FTUS42 TJSJ 220500
TAFJMZ
TAF
TJMZ 220521Z 2206/2306 VRB05KT P6SM SCT025 SCT060
     FM221530 27010KT P6SM SCT025 BKN040
     FM222200 06005KT P6SM SCT025 SCT040
      AMD NOT SKED TIL 221100=



000
FTUS42 TJSJ 220500
TAFJPS
TAF
TJPS 220521Z 2206/2306 VRB04KT P6SM FEW025 SCT070
     FM221500 13012KT P6SM FEW030 SCT060
     FM222330 05003KT P6SM FEW030 SCT060=



000
FTUS42 TJSJ 220500
TAFIST
TAF
TIST 220521Z 2206/2306 11005KT P6SM VCSH SCT025
     FM221300 13012KT P6SM SCT025
     FM222100 09007KT P6SM FEW025=



000
FTUS42 TJSJ 220500
TAFKPK
TAF
TKPK 220521Z 2206/2306 05005KT P6SM FEW019
     FM221500 08011KT P6SM SCT020
     FM222300 04005KT P6SM FEW022
      AMD NOT SKED TIL 221100=



000
FTUS42 TJSJ 220500
TAFJSJ
TAF
TJSJ 220521Z 2206/2306 00000KT P6SM FEW030 SCT060
     FM221300 08012KT P6SM SCT025
     FM222200 10006KT P6SM FEW030 SCT070=



000
FTUS42 TJSJ 220500
TAFJMZ
TAF
TJMZ 220521Z 2206/2306 VRB05KT P6SM SCT025 SCT060
     FM221530 27010KT P6SM SCT025 BKN040
     FM222200 06005KT P6SM SCT025 SCT040
      AMD NOT SKED TIL 221100=



000
FTUS42 TJSJ 220500
TAFJBQ
TAF
TJBQ 220521Z 2206/2306 VRB04KT P6SM VCSH BKN080
     FM221400 08013KT P6SM SCT025
     FM222250 09008KT P6SM SCT025
      AMD NOT SKED TIL 221100=



000
FTUS42 TJSJ 220500
TAFNCM
TAF
TNCM 220521Z 2206/2306 10003KT P6SM FEW020
     FM221500 10010KT P6SM SCT022
     FM222300 08006KT P6SM FEW020=



000
FTUS42 TJSJ 220500
TAFISX
TAF
TISX 220521Z 2206/2306 03005KT P6SM SKC
     FM221300 11013KT P6SM SCT025
     FM222300 06006KT P6SM FEW025=



000
FTUS42 TJSJ 212300
TAFISX
TAF
TISX 212326Z 2200/2224 06005KT P6SM FEW022
     FM221300 11013KT P6SM SCT025
     FM222300 06006KT P6SM FEW025=



000
FTUS42 TJSJ 212300
TAFIST
TAF
TIST 212326Z 2200/2224 11005KT P6SM VCSH SCT025
     FM221300 13012KT P6SM SCT025
     FM222100 09007KT P6SM FEW025=



000
FTUS42 TJSJ 212300
TAFJBQ
TAF
TJBQ 212326Z 2200/2224 VRB04KT P6SM VCSH SCT025 BKN050
      TEMPO 2200/2201 5SM -SHRA SCT022 BKN050
     FM221400 08013KT P6SM SCT025
     FM222250 09008KT P6SM SCT025
      AMD NOT SKED 2202/2211=



000
FTUS42 TJSJ 212300
TAFJMZ
TAF
TJMZ 212326Z 2200/2224 26006KT P6SM SCT025 SCT060
      TEMPO 2200/2201 5SM -SHRA SCT025 BKN050
     FM221530 27010KT P6SM SCT025 BKN040
     FM222200 06005KT P6SM SCT025 SCT040
      AMD NOT SKED TIL 221100=



000
FTUS42 TJSJ 212300
TAFJPS
TAF
TJPS 212326Z 2200/2224 VRB04KT P6SM FEW025 SCT070
     FM221500 13012KT P6SM FEW030 SCT060
     FM222330 05003KT P6SM FEW030 SCT060
      AMD NOT SKED TIL 220300=



000
FTUS42 TJSJ 212300
TAFKPK
TAF
TKPK 212326Z 2200/2224 05005KT P6SM FEW019
     FM221500 08011KT P6SM SCT020
     FM222300 04005KT P6SM FEW022
      AMD NOT SKED 2202/2211=



000
FTUS42 TJSJ 212300
TAFIST
TAF
TIST 212326Z 2200/2224 11005KT P6SM VCSH SCT025
     FM221300 13012KT P6SM SCT025
     FM222100 09007KT P6SM FEW025=



000
FTUS42 TJSJ 212300
TAFJSJ
TAF
TJSJ 212326Z 2200/2224 07008KT P6SM FEW025 SCT060
     FM221300 08012KT P6SM SCT025
     FM222200 10006KT P6SM FEW030 SCT070=



000
FTUS42 TJSJ 212300
TAFNCM
TAF
TNCM 212326Z 2200/2224 08007KT P6SM FEW022
     FM221500 10010KT P6SM SCT022
     FM222300 08006KT P6SM FEW020=



000
FTUS42 TJSJ 212300
TAFJMZ
TAF
TJMZ 212326Z 2200/2224 26006KT P6SM SCT025 SCT060
      TEMPO 2200/2201 5SM -SHRA SCT025 BKN050
     FM221530 27010KT P6SM SCT025 BKN040
     FM222200 06005KT P6SM SCT025 SCT040
      AMD NOT SKED TIL 221100=



000
FTUS42 TJSJ 212300
TAFISX
TAF
TISX 212326Z 2200/2224 06005KT P6SM FEW022
     FM221300 11013KT P6SM SCT025
     FM222300 06006KT P6SM FEW025=



000
FTUS42 TJSJ 212300
TAFKPK
TAF
TKPK 212326Z 2200/2224 05005KT P6SM FEW019
     FM221500 08011KT P6SM SCT020
     FM222300 04005KT P6SM FEW022
      AMD NOT SKED 2202/2211=



000
FTUS42 TJSJ 212300
TAFJBQ
TAF
TJBQ 212326Z 2200/2224 VRB04KT P6SM VCSH SCT025 BKN050
      TEMPO 2200/2201 5SM -SHRA SCT022 BKN050
     FM221400 08013KT P6SM SCT025
     FM222250 09008KT P6SM SCT025
      AMD NOT SKED 2202/2211=



000
FTUS42 TJSJ 212300
TAFJPS
TAF
TJPS 212326Z 2200/2224 VRB04KT P6SM FEW025 SCT070
     FM221500 13012KT P6SM FEW030 SCT060
     FM222330 05003KT P6SM FEW030 SCT060
      AMD NOT SKED TIL 220300=



000
FTUS42 TJSJ 212300
TAFNCM
TAF
TNCM 212326Z 2200/2224 08007KT P6SM FEW022
     FM221500 10010KT P6SM SCT022
     FM222300 08006KT P6SM FEW020=



000
FTUS42 TJSJ 212300
TAFJSJ
TAF
TJSJ 212326Z 2200/2224 07008KT P6SM FEW025 SCT060
     FM221300 08012KT P6SM SCT025
     FM222200 10006KT P6SM FEW030 SCT070=



000
FTUS42 TJSJ 211700 RRA
TAFJSJ
TAF
TJSJ 211756Z 2118/2218 05012G20KT P6SM VCTS SCT030 SCT050CB
     FM212200 10006KT P6SM FEW030 SCT070
     FM221300 08012KT P6SM SCT025=



000
FTUS42 TJSJ 211700 RRA
TAFKPK
TAF
TKPK 211756Z 2118/2218 08011KT P6SM SCT020
     FM212300 04005KT P6SM FEW022
      AMD NOT SKED 2202/2211=



000
FTUS42 TJSJ 211700 RRA
TAFJPS
TAF
TJPS 211756Z 2118/2218 16011KT P6SM VCTS SCT025CB SCT050
     FM212330 05003KT P6SM FEW030 SCT060
     FM221500 13012KT P6SM FEW030 SCT060
      AMD NOT SKED TIL 220300=



000
FTUS42 TJSJ 211700 RRA
TAFISX
TAF
TISX 211756Z 2118/2218 10009KT P6SM FEW025 SCT035
     FM212300 06006KT P6SM FEW025
     FM221300 11013KT P6SM SCT025=



000
FTUS42 TJSJ 211700 RRA
TAFNCM
TAF
TNCM 211756Z 2118/2218 10010KT P6SM SCT022
     FM212300 08006KT P6SM FEW020=



000
FTUS42 TJSJ 211700 RRA
TAFIST
TAF
TIST 211756Z 2118/2218 11011KT P6SM VCSH SCT025
     FM212100 09007KT P6SM FEW025
     FM221300 13012KT P6SM SCT025=



000
FTUS42 TJSJ 211700 RRA
TAFJMZ
TAF
TJMZ 211756Z 2118/2218 27010G15KT P6SM VCTS SCT030CB BKN050
      TEMPO 2118/2121 2SM TSRA BKN025CB
     FM212200 06005KT P6SM SCT025 SCT040
     FM221530 27010KT P6SM SCT025 BKN040
      AMD NOT SKED 2123/2211=



000
FTUS42 TJSJ 211700 RRA
TAFJBQ
TAF
TJBQ 211756Z 2118/2218 06012G17KT P6SM VCTS SCT025CB BKN040
      TEMPO 2118/2121 3SM TSRA BKN025CB
     FM212250 09008KT P6SM SCT025
     FM221400 08013KT P6SM SCT025
      AMD NOT SKED 2202/2211=



    US Dept of Commerce
    National Oceanic and Atmospheric Administration
    National Weather Service
    1325 East West Highway
    Silver Spring, MD 20910
    Page Author: NWS Internet Services Team
Disclaimer
Information Quality
Credits
Glossary
Privacy Policy
Freedom of Information Act (FOIA)
About Us
Career Opportunities